Terminal Aerodrome Forecast
Issued by NWS

Home | Current Version | Previous Version | Graphics & Text | Print | Product List | Glossary On
Versions: 1 2 3 4 5 6 7 8 9 10 11 12 13 14
000
FTUS43 KTOP 201120
TAFMHK
TAF
KMHK 201120Z 2012/2112 20008KT P6SM SCT250 WS010/20040KT
     FM201400 18013KT P6SM SCT250
     FM201700 19020G30KT P6SM SCT100 BKN200
     FM210100 18018G28KT P6SM BKN100
     FM210800 19017G25KT P6SM OVC015=

USA.gov is the U.S. government's official web portal to all federal, state and local government web resources and services.